createdAt,value
2023-03-29T00:00:14.602Z,2.80
2023-03-29T00:02:43.138Z,2.50
2023-03-29T00:05:12.319Z,2.80
2023-03-29T00:07:41.261Z,2.40
2023-03-29T00:10:11.529Z,3.20
2023-03-29T00:12:41.923Z,2.50
2023-03-29T00:15:11.030Z,1.70
2023-03-29T00:17:39.287Z,2.60
2023-03-29T00:20:10.290Z,2.53
2023-03-29T00:22:39.870Z,1.73
2023-03-29T00:25:08.395Z,2.43
2023-03-29T00:27:36.720Z,2.23
2023-03-29T00:30:07.620Z,2.20
2023-03-29T00:32:36.059Z,2.87
2023-03-29T00:35:05.181Z,2.10
2023-03-29T00:37:33.439Z,1.77
2023-03-29T00:40:01.646Z,2.30
2023-03-29T00:42:29.812Z,2.27
2023-03-29T00:45:04.095Z,1.90
2023-03-29T00:47:38.964Z,1.87
2023-03-29T00:50:14.387Z,2.80
2023-03-29T00:52:46.322Z,2.97
2023-03-29T00:55:18.565Z,2.40
2023-03-29T00:57:49.285Z,2.87
2023-03-29T01:00:21.111Z,2.30
2023-03-29T01:02:55.180Z,2.90
2023-03-29T01:05:30.967Z,3.20
2023-03-29T01:08:02.279Z,2.70
2023-03-29T01:10:36.280Z,2.47
2023-03-29T01:13:09.478Z,2.53
2023-03-29T01:15:42.017Z,2.63
2023-03-29T01:18:11.801Z,2.77
2023-03-29T01:20:52.420Z,3.30
2023-03-29T01:23:37.910Z,2.57
2023-03-29T01:26:13.829Z,2.33
2023-03-29T01:28:48.732Z,1.93
2023-03-29T01:31:21.968Z,2.13
2023-03-29T01:33:54.460Z,2.67
2023-03-29T01:36:28.161Z,2.50
2023-03-29T01:38:59.172Z,2.07
2023-03-29T01:41:35.807Z,2.70
2023-03-29T01:44:09.123Z,1.73
2023-03-29T01:46:45.806Z,2.67
2023-03-29T01:49:19.383Z,1.97
2023-03-29T01:51:54.432Z,2.43
2023-03-29T01:54:29.346Z,1.93
2023-03-29T01:56:59.331Z,2.57
2023-03-29T01:59:32.710Z,3.10
2023-03-29T02:02:03.907Z,2.43
2023-03-29T02:04:35.189Z,2.00
2023-03-29T02:07:05.889Z,3.30
2023-03-29T02:09:37.308Z,3.00
2023-03-29T02:12:08.098Z,1.93
2023-03-29T02:14:38.205Z,2.60
2023-03-29T02:17:20.215Z,2.17
2023-03-29T02:19:51.258Z,2.07
2023-03-29T02:22:25.367Z,1.87
2023-03-29T02:24:59.186Z,2.40
2023-03-29T02:27:29.183Z,2.30
2023-03-29T02:29:59.225Z,2.03
2023-03-29T02:32:34.572Z,2.03
2023-03-29T02:35:08.265Z,2.40
2023-03-29T02:37:41.062Z,2.50
2023-03-29T02:40:12.641Z,2.43
2023-03-29T02:42:41.845Z,1.90
2023-03-29T02:45:15.201Z,2.37
2023-03-29T02:47:46.748Z,2.60
2023-03-29T02:50:15.144Z,1.40
2023-03-29T02:52:52.283Z,1.30
2023-03-29T02:55:22.034Z,1.67
2023-03-29T02:57:50.190Z,1.80
2023-03-29T03:00:23.164Z,1.90
2023-03-29T03:02:52.164Z,1.90
2023-03-29T03:05:20.404Z,1.97
2023-03-29T03:07:48.453Z,2.40
2023-03-29T03:10:16.669Z,1.70
2023-03-29T03:12:44.709Z,1.50
2023-03-29T03:15:13.458Z,1.70
2023-03-29T03:17:43.079Z,2.17
2023-03-29T03:20:13.819Z,1.80
2023-03-29T03:22:44.021Z,2.47
2023-03-29T03:25:13.018Z,1.80
2023-03-29T03:27:41.324Z,1.80
2023-03-29T03:30:11.024Z,1.83
2023-03-29T03:32:39.423Z,2.57
2023-03-29T03:35:10.003Z,1.80
2023-03-29T03:37:39.226Z,3.13
2023-03-29T03:40:12.048Z,1.60
2023-03-29T03:42:41.084Z,1.90
2023-03-29T03:45:10.959Z,2.27
2023-03-29T03:47:39.533Z,1.90
2023-03-29T03:50:11.584Z,2.10
2023-03-29T03:52:39.706Z,1.70
2023-03-29T03:55:08.377Z,1.70
2023-03-29T03:57:38.403Z,1.67
2023-03-29T04:00:19.699Z,1.80
2023-03-29T04:02:49.083Z,2.30
2023-03-29T04:05:20.040Z,2.00
2023-03-29T04:07:48.218Z,2.10
2023-03-29T04:10:16.534Z,1.43
2023-03-29T04:12:44.817Z,1.77
2023-03-29T04:15:13.648Z,1.70
2023-03-29T04:17:41.803Z,1.47
2023-03-29T04:20:12.617Z,1.97
2023-03-29T04:22:42.345Z,2.03
2023-03-29T04:25:11.802Z,2.13
2023-03-29T04:27:40.621Z,1.50
2023-03-29T04:30:09.929Z,2.00
2023-03-29T04:32:38.631Z,1.47
2023-03-29T04:35:08.054Z,1.90
2023-03-29T04:37:37.094Z,1.70
2023-03-29T04:40:09.213Z,1.90
2023-03-29T04:42:37.468Z,2.03
2023-03-29T04:45:07.278Z,2.10
2023-03-29T04:47:36.584Z,2.07
2023-03-29T04:50:05.238Z,2.43
2023-03-29T04:52:33.434Z,2.57
2023-03-29T04:55:02.078Z,2.33
2023-03-29T04:57:31.695Z,2.40
2023-03-29T04:59:59.808Z,2.73
2023-03-29T05:02:27.979Z,1.80
2023-03-29T05:04:56.835Z,2.93
2023-03-29T05:07:25.013Z,2.47
2023-03-29T05:09:53.387Z,1.73
2023-03-29T05:12:21.537Z,1.43
2023-03-29T05:14:51.021Z,2.70
2023-03-29T05:17:19.169Z,2.60
2023-03-29T05:19:47.897Z,2.13
2023-03-29T05:22:16.649Z,2.00
2023-03-29T05:24:44.750Z,1.67
2023-03-29T05:27:12.932Z,1.37
2023-03-29T05:29:40.990Z,1.90
2023-03-29T05:32:10.584Z,1.70
2023-03-29T05:34:39.287Z,1.53
2023-03-29T05:37:07.503Z,1.67
2023-03-29T05:39:37.783Z,2.63
2023-03-29T05:42:06.646Z,1.93
2023-03-29T05:44:34.847Z,1.70
2023-03-29T05:47:03.000Z,1.50
2023-03-29T05:49:32.731Z,2.07
2023-03-29T05:52:00.894Z,2.00
2023-03-29T05:54:29.001Z,1.63
2023-03-29T05:56:57.164Z,1.87
2023-03-29T05:59:28.227Z,2.40
2023-03-29T06:01:56.940Z,1.90
2023-03-29T06:04:25.451Z,1.33
2023-03-29T06:06:55.151Z,1.80
2023-03-29T06:09:23.996Z,1.50
2023-03-29T06:11:52.305Z,1.77
2023-03-29T06:14:24.878Z,1.67
2023-03-29T06:16:53.597Z,2.30
2023-03-29T06:19:21.823Z,1.60
2023-03-29T06:21:53.202Z,1.50
2023-03-29T06:24:23.260Z,1.70
2023-03-29T06:26:52.476Z,1.27
2023-03-29T06:29:25.754Z,1.60
2023-03-29T06:31:56.233Z,1.70
2023-03-29T06:34:24.809Z,1.80
2023-03-29T06:36:55.008Z,1.27
2023-03-29T06:39:26.330Z,1.20
2023-03-29T06:41:56.126Z,1.53
2023-03-29T06:44:28.404Z,1.17
2023-03-29T06:46:57.985Z,1.70
2023-03-29T06:49:27.534Z,1.20
2023-03-29T06:51:57.405Z,1.87
2023-03-29T06:54:28.387Z,2.27
2023-03-29T06:56:59.690Z,1.23
2023-03-29T06:59:29.215Z,2.03
2023-03-29T07:01:59.776Z,1.40
2023-03-29T07:04:28.369Z,1.60
2023-03-29T07:07:02.467Z,1.50
2023-03-29T07:09:35.980Z,1.30
2023-03-29T07:12:06.654Z,1.57
2023-03-29T07:14:37.286Z,1.90
2023-03-29T07:17:06.108Z,1.40
2023-03-29T07:19:34.476Z,1.87
2023-03-29T07:22:02.853Z,1.67
2023-03-29T07:24:32.611Z,1.67
2023-03-29T07:27:04.575Z,1.37
2023-03-29T07:29:33.468Z,1.40
2023-03-29T07:32:01.941Z,1.50
2023-03-29T07:34:31.531Z,1.47
2023-03-29T07:36:59.918Z,2.20
2023-03-29T07:39:28.436Z,1.37
2023-03-29T07:42:00.172Z,1.43
2023-03-29T07:44:29.525Z,1.30
2023-03-29T07:46:59.974Z,1.80
2023-03-29T07:49:29.105Z,1.43
2023-03-29T07:51:57.463Z,1.00
2023-03-29T07:54:26.046Z,1.93
2023-03-29T07:56:55.370Z,1.50
2023-03-29T07:59:25.114Z,1.83
2023-03-29T08:01:53.472Z,1.60
2023-03-29T08:04:21.918Z,1.67
2023-03-29T08:06:50.754Z,1.60
2023-03-29T08:09:19.123Z,1.50
2023-03-29T08:11:47.771Z,1.20
2023-03-29T08:14:16.254Z,1.67
2023-03-29T08:16:46.195Z,1.33
2023-03-29T08:19:15.214Z,1.43
2023-03-29T08:21:43.614Z,1.87
2023-03-29T08:24:12.060Z,1.50
2023-03-29T08:26:40.438Z,2.40
2023-03-29T08:29:09.429Z,2.50
2023-03-29T08:31:38.008Z,1.60
2023-03-29T08:34:08.058Z,1.87
2023-03-29T08:36:36.586Z,1.73
2023-03-29T08:39:05.892Z,1.70
2023-03-29T08:41:38.700Z,1.70
2023-03-29T08:44:20.420Z,1.60
2023-03-29T08:46:52.927Z,1.37
2023-03-29T08:49:23.959Z,1.57
2023-03-29T08:51:54.772Z,1.87
2023-03-29T08:54:26.857Z,1.30
2023-03-29T08:56:56.253Z,1.27
2023-03-29T08:59:26.012Z,1.70
2023-03-29T09:01:56.682Z,1.40
2023-03-29T09:04:28.503Z,2.83
2023-03-29T09:06:57.870Z,4.30
2023-03-29T09:09:30.090Z,3.63
2023-03-29T09:12:06.329Z,1.93
2023-03-29T09:14:41.487Z,1.70
2023-03-29T09:17:15.864Z,2.10
2023-03-29T09:19:51.304Z,1.50
2023-03-29T09:22:24.322Z,1.97
2023-03-29T09:25:01.573Z,1.47
2023-03-29T09:27:33.122Z,1.27
2023-03-29T09:30:06.640Z,1.37
2023-03-29T09:32:42.719Z,1.70
2023-03-29T09:35:21.598Z,1.40
2023-03-29T09:37:53.098Z,1.57
2023-03-29T09:40:24.694Z,1.57
2023-03-29T09:42:54.151Z,1.10
2023-03-29T09:45:25.428Z,1.97
2023-03-29T09:47:58.241Z,1.27
2023-03-29T09:50:32.362Z,1.40
2023-03-29T09:53:02.369Z,1.77
2023-03-29T09:55:36.483Z,1.97
2023-03-29T09:58:15.757Z,1.50
2023-03-29T10:00:47.483Z,1.67
2023-03-29T10:03:21.918Z,1.30
2023-03-29T10:05:54.557Z,1.20
2023-03-29T10:08:27.151Z,1.10
2023-03-29T10:10:57.185Z,1.33
2023-03-29T10:13:30.713Z,1.40
2023-03-29T10:16:01.488Z,1.40
2023-03-29T10:18:34.714Z,1.80
2023-03-29T10:21:07.432Z,1.60
2023-03-29T10:23:38.004Z,1.33
2023-03-29T10:26:09.428Z,1.57
2023-03-29T10:28:40.111Z,1.17
2023-03-29T10:31:10.291Z,1.37
2023-03-29T10:33:39.848Z,1.27
2023-03-29T10:36:12.513Z,1.80
2023-03-29T10:38:42.197Z,1.87
2023-03-29T10:41:12.782Z,1.50
2023-03-29T10:43:45.592Z,1.97
2023-03-29T10:46:17.680Z,2.33
2023-03-29T10:48:49.125Z,1.23
2023-03-29T10:51:20.560Z,1.53
2023-03-29T10:53:50.058Z,1.67
2023-03-29T10:56:27.965Z,1.10
2023-03-29T10:59:15.802Z,1.07
2023-03-29T11:01:48.106Z,1.03
2023-03-29T11:04:24.063Z,1.63
2023-03-29T11:07:01.533Z,1.33
2023-03-29T11:09:38.239Z,1.10
2023-03-29T11:12:16.432Z,1.17
2023-03-29T11:14:50.223Z,1.30
2023-03-29T11:17:26.654Z,1.10
2023-03-29T11:20:05.188Z,1.10
2023-03-29T11:22:42.467Z,1.00
2023-03-29T11:25:17.776Z,1.20
2023-03-29T11:27:51.292Z,1.10
2023-03-29T11:30:25.231Z,1.10
2023-03-29T11:33:00.072Z,1.33
2023-03-29T11:35:36.488Z,1.33
2023-03-29T11:38:14.947Z,1.00
2023-03-29T11:40:53.673Z,1.10
2023-03-29T11:43:28.592Z,1.20
2023-03-29T11:46:01.990Z,1.00
2023-03-29T11:48:33.704Z,1.17
2023-03-29T11:51:05.471Z,1.33
2023-03-29T11:53:38.791Z,1.30
2023-03-29T11:56:14.430Z,1.20
2023-03-29T11:58:46.852Z,1.57
2023-03-29T12:01:17.162Z,1.20
2023-03-29T12:03:49.027Z,1.17
2023-03-29T12:06:21.363Z,1.50
2023-03-29T12:08:55.625Z,1.40
2023-03-29T12:11:28.806Z,1.30
2023-03-29T12:14:01.282Z,1.27
2023-03-29T12:16:33.499Z,1.40
2023-03-29T12:19:05.096Z,1.13
2023-03-29T12:21:34.708Z,1.30
2023-03-29T12:24:04.985Z,1.23
2023-03-29T12:26:49.644Z,1.60
2023-03-29T12:29:28.699Z,1.30
2023-03-29T12:32:01.710Z,1.20
2023-03-29T12:34:51.679Z,2.70
2023-03-29T12:37:31.096Z,3.60
2023-03-29T12:40:07.604Z,1.43
2023-03-29T12:42:36.552Z,1.40
2023-03-29T12:45:05.882Z,1.00
2023-03-29T12:47:37.150Z,1.10
2023-03-29T12:50:07.025Z,1.30
2023-03-29T12:52:37.462Z,1.00
2023-03-29T12:55:20.285Z,1.20
2023-03-29T12:58:03.745Z,1.30
2023-03-29T13:00:44.140Z,1.10
2023-03-29T13:03:29.532Z,1.10
2023-03-29T13:06:02.758Z,0.90
2023-03-29T13:08:35.733Z,0.90
2023-03-29T13:11:06.802Z,0.87
2023-03-29T13:13:37.676Z,0.90
2023-03-29T13:16:17.570Z,0.90
2023-03-29T13:19:03.645Z,1.40
2023-03-29T13:21:40.444Z,1.37
2023-03-29T13:24:24.051Z,1.37
2023-03-29T13:27:00.423Z,1.20
2023-03-29T13:29:55.824Z,1.10
2023-03-29T13:32:40.116Z,1.00
2023-03-29T13:35:19.357Z,1.07
2023-03-29T13:38:00.197Z,1.10
2023-03-29T13:40:44.033Z,1.60
2023-03-29T13:43:22.524Z,1.20
2023-03-29T13:46:06.782Z,1.70
2023-03-29T13:48:48.876Z,0.70
2023-03-29T13:51:23.319Z,1.00
2023-03-29T13:53:54.280Z,1.17
2023-03-29T13:56:26.641Z,1.60
2023-03-29T13:59:05.500Z,1.37
2023-03-29T14:01:40.996Z,3.07
2023-03-29T14:04:14.992Z,1.60
2023-03-29T14:06:47.020Z,1.77
2023-03-29T14:09:18.570Z,1.13
2023-03-29T14:11:48.550Z,0.97
2023-03-29T14:14:21.104Z,1.40
2023-03-29T14:16:49.600Z,1.57
2023-03-29T14:19:19.855Z,1.57
2023-03-29T14:21:48.375Z,1.77
2023-03-29T14:24:22.534Z,1.17
2023-03-29T14:26:51.630Z,1.50
2023-03-29T14:29:22.948Z,1.30
2023-03-29T14:31:53.653Z,1.00
2023-03-29T14:34:22.086Z,1.20
2023-03-29T14:36:54.323Z,2.20
2023-03-29T14:39:23.965Z,1.03
2023-03-29T14:41:53.425Z,1.30
2023-03-29T14:44:24.545Z,1.67
2023-03-29T14:46:53.117Z,1.30
2023-03-29T14:49:23.006Z,1.07
2023-03-29T14:51:52.234Z,1.07
2023-03-29T14:54:23.591Z,1.67
2023-03-29T14:56:53.243Z,0.90
2023-03-29T14:59:30.127Z,1.10
2023-03-29T15:01:58.445Z,1.23
2023-03-29T15:04:34.209Z,1.43
2023-03-29T15:07:04.269Z,1.13
2023-03-29T15:09:36.300Z,1.30
2023-03-29T15:12:04.870Z,1.23
2023-03-29T15:14:37.058Z,1.37
2023-03-29T15:17:07.653Z,1.30
2023-03-29T15:19:39.697Z,0.80
2023-03-29T15:22:11.325Z,1.30
2023-03-29T15:24:45.549Z,1.33
2023-03-29T15:27:17.019Z,1.00
2023-03-29T15:29:48.797Z,0.70
2023-03-29T15:32:24.243Z,0.90
2023-03-29T15:35:00.240Z,1.00
2023-03-29T15:37:29.269Z,1.00
2023-03-29T15:39:57.557Z,0.97
2023-03-29T15:42:26.490Z,2.37
2023-03-29T15:44:57.395Z,1.20
2023-03-29T15:47:26.163Z,1.07
2023-03-29T15:49:54.434Z,1.10
2023-03-29T15:52:22.878Z,1.33
2023-03-29T15:54:51.582Z,1.10
2023-03-29T15:57:20.198Z,0.90
2023-03-29T15:59:48.976Z,1.30
2023-03-29T16:02:21.818Z,1.80
2023-03-29T16:04:50.247Z,1.60
2023-03-29T16:07:20.953Z,1.60
2023-03-29T16:09:49.286Z,1.23
2023-03-29T16:12:20.301Z,1.23
2023-03-29T16:14:48.679Z,0.90
2023-03-29T16:17:18.224Z,1.17
2023-03-29T16:19:46.458Z,1.40
2023-03-29T16:22:14.586Z,1.40
2023-03-29T16:24:43.854Z,1.30
2023-03-29T16:27:12.026Z,1.13
2023-03-29T16:29:40.133Z,1.00
2023-03-29T16:32:08.292Z,1.10
2023-03-29T16:34:38.218Z,1.43
2023-03-29T16:37:06.705Z,1.53
2023-03-29T16:39:35.003Z,1.10
2023-03-29T16:42:03.576Z,1.10
2023-03-29T16:44:31.842Z,1.80
2023-03-29T16:47:00.092Z,1.30
2023-03-29T16:49:28.496Z,1.40
2023-03-29T16:51:59.783Z,1.00
2023-03-29T16:54:29.712Z,1.37
2023-03-29T16:56:57.905Z,1.33
2023-03-29T16:59:26.283Z,1.63
2023-03-29T17:01:54.540Z,3.63
2023-03-29T17:04:22.752Z,1.30
2023-03-29T17:06:51.733Z,1.53
2023-03-29T17:09:21.243Z,1.27
2023-03-29T17:11:49.322Z,1.40
2023-03-29T17:14:17.538Z,1.33
2023-03-29T17:16:46.367Z,1.33
2023-03-29T17:19:14.532Z,1.37
2023-03-29T17:21:42.708Z,1.43
2023-03-29T17:24:10.977Z,1.40
2023-03-29T17:26:40.479Z,1.30
2023-03-29T17:29:08.570Z,1.87
2023-03-29T17:31:38.078Z,2.90
2023-03-29T17:34:06.300Z,3.00
2023-03-29T17:36:37.372Z,3.70
2023-03-29T17:39:06.242Z,6.90
2023-03-29T17:41:34.333Z,7.33
2023-03-29T17:44:04.080Z,2.70
2023-03-29T17:46:34.870Z,1.97
2023-03-29T17:49:03.965Z,1.20
2023-03-29T17:51:32.453Z,1.13
2023-03-29T17:54:01.660Z,1.30
2023-03-29T17:56:30.676Z,2.30
2023-03-29T17:58:59.284Z,1.30
2023-03-29T18:01:29.365Z,1.33
2023-03-29T18:03:57.934Z,1.63
2023-03-29T18:06:26.376Z,1.57
2023-03-29T18:08:56.345Z,2.10
2023-03-29T18:11:25.649Z,1.73
2023-03-29T18:13:54.615Z,2.00
2023-03-29T18:16:23.426Z,1.83
2023-03-29T18:18:53.265Z,1.97
2023-03-29T18:21:22.057Z,1.83
2023-03-29T18:23:52.901Z,2.20
2023-03-29T18:26:23.500Z,2.80
2023-03-29T18:28:52.537Z,1.70
2023-03-29T18:31:21.090Z,1.43
2023-03-29T18:33:50.335Z,1.80
2023-03-29T18:36:20.876Z,1.83
2023-03-29T18:38:50.458Z,3.97
2023-03-29T18:41:19.605Z,2.63
2023-03-29T18:43:48.572Z,2.57
2023-03-29T18:46:17.405Z,3.30
2023-03-29T18:48:46.293Z,1.83
2023-03-29T18:51:15.147Z,1.90
2023-03-29T18:53:45.879Z,2.23
2023-03-29T18:56:15.476Z,3.00
2023-03-29T18:58:44.947Z,2.10
2023-03-29T19:01:14.572Z,2.20
2023-03-29T19:03:44.070Z,2.37
2023-03-29T19:06:14.237Z,2.97
2023-03-29T19:08:45.664Z,2.80
2023-03-29T19:11:16.364Z,2.60
2023-03-29T19:13:46.507Z,2.20
2023-03-29T19:16:16.020Z,2.30
2023-03-29T19:18:45.585Z,2.10
2023-03-29T19:21:15.039Z,2.50
2023-03-29T19:23:44.443Z,7.50
2023-03-29T19:26:15.050Z,18.50
2023-03-29T19:28:45.757Z,8.53
2023-03-29T19:31:15.944Z,3.67
2023-03-29T19:33:45.452Z,1.50
2023-03-29T19:36:14.810Z,1.70
2023-03-29T19:38:44.991Z,1.80
2023-03-29T19:41:14.274Z,3.43
2023-03-29T19:43:43.701Z,2.40
2023-03-29T19:46:15.820Z,4.30
2023-03-29T19:48:45.194Z,4.57
2023-03-29T19:51:14.672Z,3.43
2023-03-29T19:53:44.022Z,4.07
2023-03-29T19:56:14.575Z,7.30
2023-03-29T19:58:43.962Z,4.60
2023-03-29T20:01:15.637Z,4.43
2023-03-29T20:03:46.368Z,4.53
2023-03-29T20:06:16.174Z,3.40
2023-03-29T20:08:45.610Z,3.77
2023-03-29T20:11:15.958Z,4.37
2023-03-29T20:13:46.667Z,5.07
2023-03-29T20:16:18.519Z,4.23
2023-03-29T20:18:48.150Z,4.37
2023-03-29T20:21:18.414Z,3.10
2023-03-29T20:23:48.095Z,3.20
2023-03-29T20:26:17.438Z,3.40
2023-03-29T20:28:46.796Z,4.87
2023-03-29T20:31:17.706Z,4.60
2023-03-29T20:33:47.026Z,4.13
2023-03-29T20:36:18.467Z,2.23
2023-03-29T20:38:48.002Z,3.33
2023-03-29T20:41:19.607Z,5.50
2023-03-29T20:43:48.982Z,2.43
2023-03-29T20:46:22.808Z,2.10
2023-03-29T20:48:54.115Z,2.77
2023-03-29T20:51:30.328Z,2.53
2023-03-29T20:54:04.483Z,2.07
2023-03-29T20:56:34.367Z,2.27
2023-03-29T20:59:04.227Z,1.57
2023-03-29T21:01:40.502Z,1.93
2023-03-29T21:04:11.041Z,1.87
2023-03-29T21:06:40.735Z,1.27
2023-03-29T21:09:10.195Z,1.70
2023-03-29T21:11:39.615Z,1.57
2023-03-29T21:14:09.275Z,1.57
2023-03-29T21:16:41.746Z,2.00
2023-03-29T21:19:11.103Z,3.07
2023-03-29T21:21:41.593Z,1.70
2023-03-29T21:24:13.418Z,1.43
2023-03-29T21:26:42.927Z,1.63
2023-03-29T21:29:12.177Z,2.40
2023-03-29T21:31:42.907Z,2.33
2023-03-29T21:34:11.977Z,1.43
2023-03-29T21:36:41.276Z,1.93
2023-03-29T21:39:10.417Z,1.53
2023-03-29T21:41:39.348Z,1.20
2023-03-29T21:44:08.289Z,2.20
2023-03-29T21:46:37.296Z,1.60
2023-03-29T21:49:07.926Z,2.03
2023-03-29T21:51:36.712Z,1.67
2023-03-29T21:54:06.374Z,2.50
2023-03-29T21:56:35.371Z,2.00
2023-03-29T21:59:04.629Z,1.57
2023-03-29T22:01:33.937Z,1.97
2023-03-29T22:04:02.872Z,1.17
2023-03-29T22:06:33.388Z,1.83
2023-03-29T22:09:03.239Z,1.60
2023-03-29T22:11:32.624Z,1.70
2023-03-29T22:14:01.747Z,1.70
2023-03-29T22:16:37.516Z,2.37
2023-03-29T22:19:07.026Z,1.33
2023-03-29T22:21:37.588Z,1.63
2023-03-29T22:24:07.414Z,1.77
2023-03-29T22:26:36.268Z,2.17
2023-03-29T22:29:06.064Z,2.13
2023-03-29T22:31:35.632Z,1.47
2023-03-29T22:34:04.720Z,1.93
2023-03-29T22:36:33.492Z,1.87
2023-03-29T22:39:03.599Z,1.63
2023-03-29T22:41:32.344Z,1.47
2023-03-29T22:44:02.018Z,1.60
2023-03-29T22:46:30.915Z,1.40
2023-03-29T22:48:59.921Z,1.87
2023-03-29T22:51:28.957Z,1.47
2023-03-29T22:53:58.123Z,1.23
2023-03-29T22:56:28.558Z,1.80
2023-03-29T22:58:57.348Z,1.90
2023-03-29T23:01:26.435Z,1.40
2023-03-29T23:03:54.990Z,2.53
2023-03-29T23:06:24.028Z,2.23
2023-03-29T23:08:52.750Z,1.40
2023-03-29T23:11:21.885Z,2.60
2023-03-29T23:13:52.543Z,1.57
2023-03-29T23:16:21.859Z,1.60
2023-03-29T23:18:50.956Z,1.40
2023-03-29T23:21:19.112Z,2.00
2023-03-29T23:23:48.182Z,2.40
2023-03-29T23:26:17.074Z,2.10
2023-03-29T23:28:45.966Z,1.80
2023-03-29T23:31:18.565Z,2.00
2023-03-29T23:33:50.404Z,1.70
2023-03-29T23:36:21.218Z,2.90
2023-03-29T23:38:49.752Z,1.60
2023-03-29T23:41:20.195Z,1.53
2023-03-29T23:43:50.627Z,2.00
2023-03-29T23:46:21.461Z,1.17
2023-03-29T23:48:50.861Z,1.80
2023-03-29T23:51:22.795Z,1.30
2023-03-29T23:53:51.446Z,1.10
2023-03-29T23:56:21.379Z,2.40
2023-03-29T23:58:49.960Z,1.50
